sensor_id;sensor_type;location;lat;lon;timestamp;pressure;altitude;pressure_sealevel;temperature;humidity
22206;BME280;11272;50.104;8.754;2023-02-23T00:00:18;100218.72;;;11.43;68.81
22206;BME280;11272;50.104;8.754;2023-02-23T00:02:52;100217.84;;;11.42;68.48
22206;BME280;11272;50.104;8.754;2023-02-23T00:05:21;100223.16;;;11.42;68.60
22206;BME280;11272;50.104;8.754;2023-02-23T00:07:46;100212.53;;;11.40;68.58
22206;BME280;11272;50.104;8.754;2023-02-23T00:10:13;100213.47;;;11.39;68.88
22206;BME280;11272;50.104;8.754;2023-02-23T00:12:40;100216.09;;;11.41;68.68
22206;BME280;11272;50.104;8.754;2023-02-23T00:15:07;100212.53;;;11.40;68.97
22206;BME280;11272;50.104;8.754;2023-02-23T00:17:33;100213.41;;;11.41;69.12
22206;BME280;11272;50.104;8.754;2023-02-23T00:20:03;100208.97;;;11.42;68.97
22206;BME280;11272;50.104;8.754;2023-02-23T00:22:33;100213.38;;;11.43;69.19
22206;BME280;11272;50.104;8.754;2023-02-23T00:24:59;100211.59;;;11.43;69.07
22206;BME280;11272;50.104;8.754;2023-02-23T00:27:24;100207.09;;;11.45;68.91
22206;BME280;11272;50.104;8.754;2023-02-23T00:29:50;100215.06;;;11.45;68.96
22206;BME280;11272;50.104;8.754;2023-02-23T00:32:18;100214.16;;;11.46;69.28
22206;BME280;11272;50.104;8.754;2023-02-23T00:34:45;100214.16;;;11.46;69.42
22206;BME280;11272;50.104;8.754;2023-02-23T00:37:14;100213.25;;;11.47;69.42
22206;BME280;11272;50.104;8.754;2023-02-23T00:39:40;100217.66;;;11.48;69.40
22206;BME280;11272;50.104;8.754;2023-02-23T00:42:06;100214.94;;;11.50;69.54
22206;BME280;11272;50.104;8.754;2023-02-23T00:44:33;100210.50;;;11.50;69.42
22206;BME280;11272;50.104;8.754;2023-02-23T00:47:00;100210.53;;;11.49;69.56
22206;BME280;11272;50.104;8.754;2023-02-23T00:49:26;100211.47;;;11.48;69.89
22206;BME280;11272;50.104;8.754;2023-02-23T00:51:52;100216.78;;;11.48;69.73
22206;BME280;11272;50.104;8.754;2023-02-23T00:54:20;100215.00;;;11.48;69.93
22206;BME280;11272;50.104;8.754;2023-02-23T00:56:46;100215.91;;;11.47;69.96
22206;BME280;11272;50.104;8.754;2023-02-23T00:59:13;100208.84;;;11.46;70.00
22206;BME280;11272;50.104;8.754;2023-02-23T01:01:39;100208.84;;;11.46;70.22
22206;BME280;11272;50.104;8.754;2023-02-23T01:04:06;100214.16;;;11.46;70.44
22206;BME280;11272;50.104;8.754;2023-02-23T01:06:33;100215.03;;;11.47;70.05
22206;BME280;11272;50.104;8.754;2023-02-23T01:08:58;100219.44;;;11.48;70.19
22206;BME280;11272;50.104;8.754;2023-02-23T01:11:27;100209.69;;;11.48;70.44
22206;BME280;11272;50.104;8.754;2023-02-23T01:13:56;100220.22;;;11.51;70.46
22206;BME280;11272;50.104;8.754;2023-02-23T01:16:24;100214.00;;;11.52;70.84
22206;BME280;11272;50.104;8.754;2023-02-23T01:18:53;100217.53;;;11.53;70.76
22206;BME280;11272;50.104;8.754;2023-02-23T01:23:49;100213.84;;;11.57;70.72
22206;BME280;11272;50.104;8.754;2023-02-23T01:26:17;100207.66;;;11.56;70.83
22206;BME280;11272;50.104;8.754;2023-02-23T01:28:47;100206.75;;;11.57;71.38
22206;BME280;11272;50.104;8.754;2023-02-23T01:31:13;100206.75;;;11.57;71.21
22206;BME280;11272;50.104;8.754;2023-02-23T01:33:40;100208.50;;;11.58;71.41
22206;BME280;11272;50.104;8.754;2023-02-23T01:36:06;100217.28;;;11.60;71.68
22206;BME280;11272;50.104;8.754;2023-02-23T01:38:31;100214.63;;;11.60;71.73
22206;BME280;11272;50.104;8.754;2023-02-23T01:40:57;100210.22;;;11.59;71.83
22206;BME280;11272;50.104;8.754;2023-02-23T01:43:22;100213.75;;;11.60;71.69
22206;BME280;11272;50.104;8.754;2023-02-23T01:45:56;100209.31;;;11.60;71.97
22206;BME280;11272;50.104;8.754;2023-02-23T01:48:25;100210.22;;;11.59;71.75
22206;BME280;11272;50.104;8.754;2023-02-23T01:51:08;100213.88;;;11.55;71.70
22206;BME280;11272;50.104;8.754;2023-02-23T01:53:43;100212.25;;;11.51;72.19
22206;BME280;11272;50.104;8.754;2023-02-23T01:56:20;100208.84;;;11.46;71.88
22206;BME280;11272;50.104;8.754;2023-02-23T01:58:49;100210.75;;;11.41;72.06
22206;BME280;11272;50.104;8.754;2023-02-23T02:04:08;100216.41;;;11.29;72.68
22206;BME280;11272;50.104;8.754;2023-02-23T02:06:42;100211.19;;;11.26;73.21
22206;BME280;11272;50.104;8.754;2023-02-23T02:09:13;100208.56;;;11.24;73.35
22206;BME280;11272;50.104;8.754;2023-02-23T02:11:43;100205.94;;;11.23;73.71
22206;BME280;11272;50.104;8.754;2023-02-23T02:14:23;100214.00;;;11.21;74.31
22206;BME280;11272;50.104;8.754;2023-02-23T02:17:12;100210.53;;;11.18;74.38
22206;BME280;11272;50.104;8.754;2023-02-23T02:33:39;100202.97;;;11.03;77.07
22206;BME280;11272;50.104;8.754;2023-02-23T02:39:26;100201.38;;;10.95;78.76
22206;BME280;11272;50.104;8.754;2023-02-23T02:42:25;100195.28;;;10.92;79.26
22206;BME280;11272;50.104;8.754;2023-02-23T02:53:10;100191.78;;;10.90;81.41
22206;BME280;11272;50.104;8.754;2023-02-23T02:55:40;100193.53;;;10.91;82.03
22206;BME280;11272;50.104;8.754;2023-02-23T02:58:11;100187.44;;;10.87;82.60
22206;BME280;11272;50.104;8.754;2023-02-23T03:00:39;100189.25;;;10.85;82.97
22206;BME280;11272;50.104;8.754;2023-02-23T03:03:29;100184.81;;;10.86;84.05
22206;BME280;11272;50.104;8.754;2023-02-23T03:06:15;100186.59;;;10.85;84.09
22206;BME280;11272;50.104;8.754;2023-02-23T03:09:24;100181.41;;;10.81;84.87
22206;BME280;11272;50.104;8.754;2023-02-23T03:12:20;100180.53;;;10.80;85.00
22206;BME280;11272;50.104;8.754;2023-02-23T03:15:35;100190.25;;;10.81;85.34
22206;BME280;11272;50.104;8.754;2023-02-23T03:21:34;100185.66;;;10.88;86.63
22206;BME280;11272;50.104;8.754;2023-02-23T03:27:22;100184.78;;;10.87;86.79
22206;BME280;11272;50.104;8.754;2023-02-23T03:30:20;100182.13;;;10.87;87.34
22206;BME280;11272;50.104;8.754;2023-02-23T03:33:14;100192.72;;;10.89;87.77
22206;BME280;11272;50.104;8.754;2023-02-23T03:36:12;100184.78;;;10.87;88.03
22206;BME280;11272;50.104;8.754;2023-02-23T03:39:04;100198.91;;;10.89;88.52
22206;BME280;11272;50.104;8.754;2023-02-23T03:41:54;100194.41;;;10.91;88.74
22206;BME280;11272;50.104;8.754;2023-02-23T03:44:42;100193.47;;;10.94;89.03
22206;BME280;11272;50.104;8.754;2023-02-23T03:47:32;100197.91;;;10.93;89.07
22206;BME280;11272;50.104;8.754;2023-02-23T03:53:13;100194.25;;;10.97;89.79
22206;BME280;11272;50.104;8.754;2023-02-23T03:56:00;100196.00;;;10.98;90.42
22206;BME280;11272;50.104;8.754;2023-02-23T03:58:50;100195.09;;;11.00;90.36
22206;BME280;11272;50.104;8.754;2023-02-23T04:01:37;100198.56;;;11.02;90.71
22206;BME280;11272;50.104;8.754;2023-02-23T04:04:22;100199.41;;;11.04;90.84
22206;BME280;11272;50.104;8.754;2023-02-23T04:07:08;100195.91;;;11.02;91.13
22206;BME280;11272;50.104;8.754;2023-02-23T04:09:54;100197.66;;;11.03;91.02
22206;BME280;11272;50.104;8.754;2023-02-23T04:12:46;100196.00;;;10.98;91.20
22206;BME280;11272;50.104;8.754;2023-02-23T04:15:38;100200.44;;;10.98;91.68
22206;BME280;11272;50.104;8.754;2023-02-23T04:18:08;100201.31;;;10.98;91.91
22206;BME280;11272;50.104;8.754;2023-02-23T04:20:36;100199.56;;;10.97;91.80
22206;BME280;11272;50.104;8.754;2023-02-23T04:23:02;100200.47;;;10.96;92.08
22206;BME280;11272;50.104;8.754;2023-02-23T04:25:28;100196.94;;;10.96;92.43
22206;BME280;11272;50.104;8.754;2023-02-23T04:27:54;100202.31;;;10.94;92.53
22206;BME280;11272;50.104;8.754;2023-02-23T04:30:20;100206.78;;;10.92;92.88
22206;BME280;11272;50.104;8.754;2023-02-23T04:32:49;100204.16;;;10.91;93.33
22206;BME280;11272;50.104;8.754;2023-02-23T04:35:15;100212.13;;;10.91;93.59
22206;BME280;11272;50.104;8.754;2023-02-23T04:37:40;100203.28;;;10.90;93.51
22206;BME280;11272;50.104;8.754;2023-02-23T04:40:06;100201.47;;;10.92;93.88
22206;BME280;11272;50.104;8.754;2023-02-23T04:42:32;100207.66;;;10.93;94.27
22206;BME280;11272;50.104;8.754;2023-02-23T04:44:57;100204.97;;;10.94;94.62
22206;BME280;11272;50.104;8.754;2023-02-23T04:47:23;100210.28;;;10.94;94.38
22206;BME280;11272;50.104;8.754;2023-02-23T04:49:49;100211.16;;;10.95;94.96
22206;BME280;11272;50.104;8.754;2023-02-23T04:52:15;100209.31;;;10.97;95.18
22206;BME280;11272;50.104;8.754;2023-02-23T04:54:41;100206.63;;;10.98;95.32
22206;BME280;11272;50.104;8.754;2023-02-23T04:57:08;100207.50;;;10.99;96.08
22206;BME280;11272;50.104;8.754;2023-02-23T04:59:36;100208.38;;;11.00;95.89
22206;BME280;11272;50.104;8.754;2023-02-23T05:02:02;100204.84;;;10.99;96.24
22206;BME280;11272;50.104;8.754;2023-02-23T05:04:28;100210.97;;;11.01;96.34
22206;BME280;11272;50.104;8.754;2023-02-23T05:06:53;100211.84;;;11.02;96.28
22206;BME280;11272;50.104;8.754;2023-02-23T05:09:19;100208.28;;;11.03;96.98
22206;BME280;11272;50.104;8.754;2023-02-23T05:11:45;100203.84;;;11.03;96.96
22206;BME280;11272;50.104;8.754;2023-02-23T05:14:10;100213.59;;;11.03;97.37
22206;BME280;11272;50.104;8.754;2023-02-23T05:16:38;100210.91;;;11.04;97.52
22206;BME280;11272;50.104;8.754;2023-02-23T05:19:04;100215.31;;;11.05;97.43
22206;BME280;11272;50.104;8.754;2023-02-23T05:21:30;100211.78;;;11.05;97.57
22206;BME280;11272;50.104;8.754;2023-02-23T05:23:55;100210.91;;;11.04;97.83
22206;BME280;11272;50.104;8.754;2023-02-23T05:26:22;100215.34;;;11.04;97.57
22206;BME280;11272;50.104;8.754;2023-02-23T05:28:47;100218.00;;;11.04;97.70
22206;BME280;11272;50.104;8.754;2023-02-23T05:31:13;100210.91;;;11.04;98.05
22206;BME280;11272;50.104;8.754;2023-02-23T05:33:39;100215.31;;;11.05;98.39
22206;BME280;11272;50.104;8.754;2023-02-23T05:36:10;100216.22;;;11.04;98.48
22206;BME280;11272;50.104;8.754;2023-02-23T05:38:36;100217.16;;;11.02;98.20
22206;BME280;11272;50.104;8.754;2023-02-23T05:41:06;100218.06;;;11.01;98.42
22206;BME280;11272;50.104;8.754;2023-02-23T05:43:32;100219.00;;;11.00;98.76
22206;BME280;11272;50.104;8.754;2023-02-23T05:45:57;100212.81;;;10.99;98.90
22206;BME280;11272;50.104;8.754;2023-02-23T05:48:27;100221.66;;;11.00;99.09
22206;BME280;11272;50.104;8.754;2023-02-23T05:50:53;100216.34;;;11.00;99.12
22206;BME280;11272;50.104;8.754;2023-02-23T05:53:18;100222.47;;;11.02;99.55
22206;BME280;11272;50.104;8.754;2023-02-23T05:55:44;100223.34;;;11.02;99.73
22206;BME280;11272;50.104;8.754;2023-02-23T05:58:10;100218.91;;;11.03;99.73
22206;BME280;11272;50.104;8.754;2023-02-23T06:00:38;100226.84;;;11.04;99.79
22206;BME280;11272;50.104;8.754;2023-02-23T06:03:04;100228.66;;;11.02;99.86
22206;BME280;11272;50.104;8.754;2023-02-23T06:05:29;100226.84;;;11.04;99.93
22206;BME280;11272;50.104;8.754;2023-02-23T06:07:55;100223.28;;;11.05;100.00
22206;BME280;11272;50.104;8.754;2023-02-23T06:10:21;100225.06;;;11.05;100.00
22206;BME280;11272;50.104;8.754;2023-02-23T06:12:46;100235.69;;;11.05;100.00
22206;BME280;11272;50.104;8.754;2023-02-23T06:15:12;100233.94;;;11.04;100.00
22206;BME280;11272;50.104;8.754;2023-02-23T06:17:38;100224.19;;;11.04;100.00
22206;BME280;11272;50.104;8.754;2023-02-23T06:20:04;100228.66;;;11.02;100.00
22206;BME280;11272;50.104;8.754;2023-02-23T06:22:32;100236.59;;;11.04;100.00
22206;BME280;11272;50.104;8.754;2023-02-23T06:24:59;100231.28;;;11.04;100.00
22206;BME280;11272;50.104;8.754;2023-02-23T06:27:29;100233.94;;;11.04;100.00
22206;BME280;11272;50.104;8.754;2023-02-23T06:29:54;100240.13;;;11.04;100.00
22206;BME280;11272;50.104;8.754;2023-02-23T06:32:20;100234.84;;;11.03;100.00
22206;BME280;11272;50.104;8.754;2023-02-23T06:34:48;100238.38;;;11.03;100.00
22206;BME280;11272;50.104;8.754;2023-02-23T06:37:14;100234.78;;;11.06;100.00
22206;BME280;11272;50.104;8.754;2023-02-23T06:39:39;100242.69;;;11.07;100.00
22206;BME280;11272;50.104;8.754;2023-02-23T06:42:05;100241.75;;;11.10;100.00
22206;BME280;11272;50.104;8.754;2023-02-23T06:44:30;100248.84;;;11.09;100.00
22206;BME280;11272;50.104;8.754;2023-02-23T06:47:08;100246.19;;;11.09;100.00
22206;BME280;11272;50.104;8.754;2023-02-23T06:49:35;100253.28;;;11.10;100.00
22206;BME280;11272;50.104;8.754;2023-02-23T06:52:01;100250.53;;;11.12;100.00
22206;BME280;11272;50.104;8.754;2023-02-23T06:54:27;100251.41;;;11.12;100.00
22206;BME280;11272;50.104;8.754;2023-02-23T06:56:52;100254.94;;;11.13;100.00
22206;BME280;11272;50.104;8.754;2023-02-23T06:59:20;100257.59;;;11.13;100.00
22206;BME280;11272;50.104;8.754;2023-02-23T07:01:48;100264.69;;;11.14;100.00
22206;BME280;11272;50.104;8.754;2023-02-23T07:04:14;100254.91;;;11.14;100.00
22206;BME280;11272;50.104;8.754;2023-02-23T07:06:40;100266.34;;;11.18;100.00
22206;BME280;11272;50.104;8.754;2023-02-23T07:09:07;100261.84;;;11.21;100.00
22206;BME280;11272;50.104;8.754;2023-02-23T07:11:33;100267.16;;;11.21;100.00
22206;BME280;11272;50.104;8.754;2023-02-23T07:13:59;100267.09;;;11.23;100.00
22206;BME280;11272;50.104;8.754;2023-02-23T07:16:27;100268.00;;;11.22;100.00
22206;BME280;11272;50.104;8.754;2023-02-23T07:18:56;100263.47;;;11.25;100.00
22206;BME280;11272;50.104;8.754;2023-02-23T07:21:22;100266.13;;;11.27;100.00
22206;BME280;11272;50.104;8.754;2023-02-23T07:23:48;100279.31;;;11.30;100.00
22206;BME280;11272;50.104;8.754;2023-02-23T07:26:15;100276.56;;;11.33;100.00
22206;BME280;11272;50.104;8.754;2023-02-23T07:28:42;100285.41;;;11.33;100.00
22206;BME280;11272;50.104;8.754;2023-02-23T07:31:08;100280.09;;;11.33;100.00
22206;BME280;11272;50.104;8.754;2023-02-23T07:33:34;100280.16;;;11.32;100.00
22206;BME280;11272;50.104;8.754;2023-02-23T07:36:00;100279.28;;;11.31;100.00
22206;BME280;11272;50.104;8.754;2023-02-23T07:38:26;100280.97;;;11.34;100.00
22206;BME280;11272;50.104;8.754;2023-02-23T07:40:57;100277.34;;;11.36;100.00
22206;BME280;11272;50.104;8.754;2023-02-23T07:43:24;100276.50;;;11.36;100.00
22206;BME280;11272;50.104;8.754;2023-02-23T07:45:50;100278.22;;;11.37;100.00
22206;BME280;11272;50.104;8.754;2023-02-23T07:48:17;100281.66;;;11.42;100.00
22206;BME280;11272;50.104;8.754;2023-02-23T07:50:42;100285.91;;;11.48;100.00
22206;BME280;11272;50.104;8.754;2023-02-23T07:53:08;100282.16;;;11.55;100.00
22206;BME280;11272;50.104;8.754;2023-02-23T07:55:36;100290.00;;;11.59;100.00
22206;BME280;11272;50.104;8.754;2023-02-23T07:58:04;100284.50;;;11.65;100.00
22206;BME280;11272;50.104;8.754;2023-02-23T08:00:31;100285.22;;;11.73;100.00
22206;BME280;11272;50.104;8.754;2023-02-23T08:02:57;100293.03;;;11.79;100.00
22206;BME280;11272;50.104;8.754;2023-02-23T08:05:23;100292.06;;;11.82;100.00
22206;BME280;11272;50.104;8.754;2023-02-23T08:07:51;100299.81;;;11.90;100.00
22206;BME280;11272;50.104;8.754;2023-02-23T08:10:17;100293.50;;;11.94;100.00
22206;BME280;11272;50.104;8.754;2023-02-23T08:12:42;100291.56;;;11.99;100.00
22206;BME280;11272;50.104;8.754;2023-02-23T08:15:08;100288.03;;;11.98;100.00
22206;BME280;11272;50.104;8.754;2023-02-23T08:17:38;100290.66;;;12.00;100.00
22206;BME280;11272;50.104;8.754;2023-02-23T08:20:07;100300.25;;;12.05;100.00
22206;BME280;11272;50.104;8.754;2023-02-23T08:22:33;100300.22;;;12.07;100.00
22206;BME280;11272;50.104;8.754;2023-02-23T08:24:59;100293.88;;;12.11;100.00
22206;BME280;11272;50.104;8.754;2023-02-23T08:27:25;100295.63;;;12.12;100.00
22206;BME280;11272;50.104;8.754;2023-02-23T08:29:55;100296.59;;;12.08;100.00
22206;BME280;11272;50.104;8.754;2023-02-23T08:32:21;100299.34;;;12.06;100.00
22206;BME280;11272;50.104;8.754;2023-02-23T08:34:48;100299.28;;;12.08;100.00
22206;BME280;11272;50.104;8.754;2023-02-23T08:37:14;100305.47;;;12.08;100.00
22206;BME280;11272;50.104;8.754;2023-02-23T08:39:39;100306.44;;;12.06;100.00
22206;BME280;11272;50.104;8.754;2023-02-23T08:42:05;100309.88;;;12.09;100.00
22206;BME280;11272;50.104;8.754;2023-02-23T08:44:31;100316.91;;;12.12;100.00
22206;BME280;11272;50.104;8.754;2023-02-23T08:46:56;100309.84;;;12.11;100.00
22206;BME280;11272;50.104;8.754;2023-02-23T08:49:23;100309.91;;;12.08;100.00
22206;BME280;11272;50.104;8.754;2023-02-23T08:51:50;100303.69;;;12.09;100.00
22206;BME280;11272;50.104;8.754;2023-02-23T08:54:18;100310.66;;;12.13;100.00
22206;BME280;11272;50.104;8.754;2023-02-23T08:56:44;100316.94;;;12.10;100.00
22206;BME280;11272;50.104;8.754;2023-02-23T08:59:12;100315.44;;;12.02;100.00
22206;BME280;11272;50.104;8.754;2023-02-23T09:01:38;100309.28;;;12.00;100.00
22206;BME280;11272;50.104;8.754;2023-02-23T09:04:04;100310.06;;;12.03;100.00
22206;BME280;11272;50.104;8.754;2023-02-23T09:06:31;100314.44;;;12.06;100.00
22206;BME280;11272;50.104;8.754;2023-02-23T09:08:57;100307.25;;;12.08;100.00
22206;BME280;11272;50.104;8.754;2023-02-23T09:11:23;100315.03;;;12.15;100.00
22206;BME280;11272;50.104;8.754;2023-02-23T09:13:49;100323.72;;;12.22;100.00
22206;BME280;11272;50.104;8.754;2023-02-23T09:16:15;100323.41;;;12.31;100.00
22206;BME280;11272;50.104;8.754;2023-02-23T09:18:41;100312.41;;;12.43;100.00
22206;BME280;11272;50.104;8.754;2023-02-23T09:21:09;100317.44;;;12.52;100.00
22206;BME280;11272;50.104;8.754;2023-02-23T09:23:43;100318.84;;;12.64;100.00
22206;BME280;11272;50.104;8.754;2023-02-23T09:26:10;100323.06;;;12.71;100.00
22206;BME280;11272;50.104;8.754;2023-02-23T09:28:37;100319.28;;;12.78;100.00
22206;BME280;11272;50.104;8.754;2023-02-23T09:31:15;100321.75;;;12.84;100.00
22206;BME280;11272;50.104;8.754;2023-02-23T09:34:00;100327.63;;;12.94;100.00
22206;BME280;11272;50.104;8.754;2023-02-23T09:36:26;100328.47;;;12.96;99.98
22206;BME280;11272;50.104;8.754;2023-02-23T09:38:53;100332.00;;;12.96;99.58
22206;BME280;11272;50.104;8.754;2023-02-23T09:49:17;100337.50;;;12.92;97.31
22206;BME280;11272;50.104;8.754;2023-02-23T09:51:48;100336.78;;;12.87;96.41
22206;BME280;11272;50.104;8.754;2023-02-23T09:54:27;100341.31;;;12.83;96.04
22206;BME280;11272;50.104;8.754;2023-02-23T09:56:54;100342.38;;;12.78;95.91
22206;BME280;11272;50.104;8.754;2023-02-23T09:59:23;100336.13;;;12.79;95.66
22206;BME280;11272;50.104;8.754;2023-02-23T10:01:57;100336.13;;;12.79;95.25
22206;BME280;11272;50.104;8.754;2023-02-23T10:07:28;100334.97;;;12.87;94.49
22206;BME280;11272;50.104;8.754;2023-02-23T10:13:18;100338.97;;;13.00;94.31
22206;BME280;11272;50.104;8.754;2023-02-23T10:15:50;100338.84;;;13.03;93.51
22206;BME280;11272;50.104;8.754;2023-02-23T10:18:39;100337.84;;;13.07;92.88
22206;BME280;11272;50.104;8.754;2023-02-23T10:21:14;100340.41;;;13.12;92.52
22206;BME280;11272;50.104;8.754;2023-02-23T10:23:45;100346.41;;;13.19;92.31
22206;BME280;11272;50.104;8.754;2023-02-23T10:26:22;100338.44;;;13.17;91.21
22206;BME280;11272;50.104;8.754;2023-02-23T10:28:50;100335.75;;;13.19;91.51
22206;BME280;11272;50.104;8.754;2023-02-23T10:31:35;100343.47;;;13.26;91.42
22206;BME280;11272;50.104;8.754;2023-02-23T10:34:08;100340.44;;;13.37;90.95
22206;BME280;11272;50.104;8.754;2023-02-23T10:36:42;100340.22;;;13.43;90.01
22206;BME280;11272;50.104;8.754;2023-02-23T10:39:11;100341.84;;;13.47;89.78
22206;BME280;11272;50.104;8.754;2023-02-23T10:45:24;100336.94;;;13.84;89.24
22206;BME280;11272;50.104;8.754;2023-02-23T10:48:06;100345.84;;;14.10;88.09
22206;BME280;11272;50.104;8.754;2023-02-23T10:50:35;100343.69;;;14.19;86.85
22206;BME280;11272;50.104;8.754;2023-02-23T10:53:11;100342.69;;;14.22;85.37
22206;BME280;11272;50.104;8.754;2023-02-23T10:55:42;100352.63;;;14.18;84.72
22206;BME280;11272;50.104;8.754;2023-02-23T10:58:16;100349.06;;;14.18;84.15
22206;BME280;11272;50.104;8.754;2023-02-23T11:00:58;100347.97;;;14.23;83.76
22206;BME280;11272;50.104;8.754;2023-02-23T11:03:31;100349.91;;;14.20;83.11
22206;BME280;11272;50.104;8.754;2023-02-23T11:05:58;100344.72;;;14.15;82.69
22206;BME280;11272;50.104;8.754;2023-02-23T11:11:19;100339.47;;;14.12;81.37
22206;BME280;11272;50.104;8.754;2023-02-23T11:13:50;100339.06;;;14.00;81.29
22206;BME280;11272;50.104;8.754;2023-02-23T11:16:19;100335.78;;;13.93;80.84
22206;BME280;11272;50.104;8.754;2023-02-23T11:18:57;100335.88;;;13.90;80.63
22206;BME280;11272;50.104;8.754;2023-02-23T11:21:30;100343.94;;;13.88;80.58
22206;BME280;11272;50.104;8.754;2023-02-23T11:26:43;100341.31;;;13.87;79.95
22206;BME280;11272;50.104;8.754;2023-02-23T11:29:24;100330.88;;;13.81;79.57
22206;BME280;11272;50.104;8.754;2023-02-23T11:31:53;100334.38;;;13.83;79.86
22206;BME280;11272;50.104;8.754;2023-02-23T11:34:31;100332.63;;;13.82;79.45
22206;BME280;11272;50.104;8.754;2023-02-23T11:37:04;100331.44;;;13.89;79.63
22206;BME280;11272;50.104;8.754;2023-02-23T11:39:31;100334.25;;;13.86;79.04
22206;BME280;11272;50.104;8.754;2023-02-23T11:42:28;100327.22;;;13.83;78.97
22206;BME280;11272;50.104;8.754;2023-02-23T11:47:31;100321.16;;;14.03;78.85
22206;BME280;11272;50.104;8.754;2023-02-23T11:49:58;100321.53;;;14.16;78.64
22206;BME280;11272;50.104;8.754;2023-02-23T11:52:24;100326.13;;;14.36;78.46
22206;BME280;11272;50.104;8.754;2023-02-23T11:54:59;100315.69;;;14.53;77.64
22206;BME280;11272;50.104;8.754;2023-02-23T11:57:28;100316.25;;;14.61;77.25
22206;BME280;11272;50.104;8.754;2023-02-23T11:59:58;100313.19;;;14.70;76.55
22206;BME280;11272;50.104;8.754;2023-02-23T12:02:28;100314.22;;;14.89;76.22
22206;BME280;11272;50.104;8.754;2023-02-23T12:05:17;100306.66;;;15.21;75.78
22206;BME280;11272;50.104;8.754;2023-02-23T12:08:08;100300.81;;;16.31;75.89
22206;BME280;11272;50.104;8.754;2023-02-23T12:10:38;100294.69;;;17.54;73.24
22206;BME280;11272;50.104;8.754;2023-02-23T12:16:17;100276.84;;;20.15;66.50
22206;BME280;11272;50.104;8.754;2023-02-23T12:21:33;100278.25;;;20.63;58.26
22206;BME280;11272;50.104;8.754;2023-02-23T12:24:09;100266.25;;;20.12;57.14
22206;BME280;11272;50.104;8.754;2023-02-23T12:26:48;100268.69;;;19.44;56.72
22206;BME280;11272;50.104;8.754;2023-02-23T12:29:22;100268.03;;;18.95;57.03
22206;BME280;11272;50.104;8.754;2023-02-23T12:32:00;100264.66;;;18.44;57.36
22206;BME280;11272;50.104;8.754;2023-02-23T12:34:46;100265.66;;;17.95;57.73
22206;BME280;11272;50.104;8.754;2023-02-23T12:37:28;100270.75;;;17.49;58.04
22206;BME280;11272;50.104;8.754;2023-02-23T12:40:02;100271.97;;;17.09;58.94
22206;BME280;11272;50.104;8.754;2023-02-23T12:42:38;100274.50;;;16.94;59.33
22206;BME280;11272;50.104;8.754;2023-02-23T12:45:38;100268.34;;;16.74;59.56
22206;BME280;11272;50.104;8.754;2023-02-23T12:48:07;100275.34;;;16.60;60.11
22206;BME280;11272;50.104;8.754;2023-02-23T12:50:43;100270.75;;;16.43;60.12
22206;BME280;11272;50.104;8.754;2023-02-23T12:53:23;100272.25;;;16.30;60.41
22206;BME280;11272;50.104;8.754;2023-02-23T12:58:57;100273.91;;;16.14;60.96
22206;BME280;11272;50.104;8.754;2023-02-23T13:01:35;100271.41;;;16.11;60.88
22206;BME280;11272;50.104;8.754;2023-02-23T13:04:36;100266.97;;;16.10;60.93
22206;BME280;11272;50.104;8.754;2023-02-23T13:12:51;100253.75;;;16.07;61.12
22206;BME280;11272;50.104;8.754;2023-02-23T13:15:21;100266.09;;;15.90;60.64
22206;BME280;11272;50.104;8.754;2023-02-23T13:17:57;100263.53;;;15.69;60.92
22206;BME280;11272;50.104;8.754;2023-02-23T13:20:36;100262.47;;;15.52;61.19
22206;BME280;11272;50.104;8.754;2023-02-23T13:23:14;100269.06;;;15.44;61.06
22206;BME280;11272;50.104;8.754;2023-02-23T13:31:03;100269.31;;;15.17;62.11
22206;BME280;11272;50.104;8.754;2023-02-23T13:33:29;100270.19;;;15.18;62.15
22206;BME280;11272;50.104;8.754;2023-02-23T13:36:03;100259.69;;;15.13;61.92
22206;BME280;11272;50.104;8.754;2023-02-23T13:39:02;100271.56;;;15.06;62.21
22206;BME280;11272;50.104;8.754;2023-02-23T13:41:56;100268.22;;;15.01;62.31
22206;BME280;11272;50.104;8.754;2023-02-23T13:44:51;100269.34;;;14.96;62.43
22206;BME280;11272;50.104;8.754;2023-02-23T13:47:42;100267.69;;;14.93;62.53
22206;BME280;11272;50.104;8.754;2023-02-23T13:52:43;100258.50;;;15.00;62.19
22206;BME280;11272;50.104;8.754;2023-02-23T13:55:47;100261.69;;;15.08;62.11
22206;BME280;11272;50.104;8.754;2023-02-23T13:58:23;100260.50;;;15.15;62.39
22206;BME280;11272;50.104;8.754;2023-02-23T14:01:14;100261.13;;;15.22;61.54
22206;BME280;11272;50.104;8.754;2023-02-23T14:04:01;100262.94;;;15.22;61.52
22206;BME280;11272;50.104;8.754;2023-02-23T14:06:29;100263.84;;;15.21;61.36
22206;BME280;11272;50.104;8.754;2023-02-23T14:09:07;100267.41;;;15.21;61.21
22206;BME280;11272;50.104;8.754;2023-02-23T14:11:46;100266.25;;;15.27;60.73
22206;BME280;11272;50.104;8.754;2023-02-23T14:14:36;100260.91;;;15.27;60.71
22206;BME280;11272;50.104;8.754;2023-02-23T14:20:02;100270.78;;;15.45;60.63
22206;BME280;11272;50.104;8.754;2023-02-23T14:22:34;100261.44;;;15.55;60.20
22206;BME280;11272;50.104;8.754;2023-02-23T14:28:02;100260.84;;;15.69;59.67
22206;BME280;11272;50.104;8.754;2023-02-23T14:31:01;100259.44;;;15.80;59.24
22206;BME280;11272;50.104;8.754;2023-02-23T14:36:28;100259.06;;;15.69;58.71
22206;BME280;11272;50.104;8.754;2023-02-23T14:39:00;100257.47;;;15.65;58.59
22206;BME280;11272;50.104;8.754;2023-02-23T14:41:54;100256.59;;;15.65;58.56
22206;BME280;11272;50.104;8.754;2023-02-23T14:44:30;100255.44;;;15.70;58.92
22206;BME280;11272;50.104;8.754;2023-02-23T14:47:13;100251.41;;;15.80;58.45
22206;BME280;11272;50.104;8.754;2023-02-23T14:57:44;100268.78;;;15.90;57.64